Time;durP1;ratioP1;P1;durP2;ratioP2;P2;SDS_P1;SDS_P2;PMS_P1;PMS_P2;Temp;Humidity;BMP_temperature;BMP_pressure;BME280_temperature;BME280_humidity;BME280_pressure;Samples;Min_cycle;Max_cycle;Signal;HPM_P1;HPM_P2
2024/01/29 00:01:49;;;;;;;6.38;3.53;;;;;;;;;;4919659;29;20056;-81
2024/01/29 00:04:15;;;;;;;4.95;3.45;;;;;;;;;;4886025;29;20074;-81
2024/01/29 00:06:41;;;;;;;5.90;3.33;;;;;;;;;;4917044;29;20054;-81
2024/01/29 00:09:07;;;;;;;5.00;3.40;;;;;;;;;;4921299;29;20138;-81
2024/01/29 00:11:33;;;;;;;4.70;3.45;;;;;;;;;;4903958;29;20060;-82
2024/01/29 00:14:00;;;;;;;4.38;3.42;;;;;;;;;;4920315;29;20043;-79
2024/01/29 00:16:26;;;;;;;7.00;3.22;;;;;;;;;;4916983;29;20036;-79
2024/01/29 00:18:52;;;;;;;7.15;3.33;;;;;;;;;;4920424;29;20180;-79
2024/01/29 00:21:21;;;;;;;5.53;3.50;;;;;;;;;;4920896;29;20673;-80
2024/01/29 00:23:47;;;;;;;5.45;3.60;;;;;;;;;;4903001;29;20036;-80
2024/01/29 00:26:13;;;;;;;5.50;3.45;;;;;;;;;;4917130;29;20056;-80
2024/01/29 00:28:39;;;;;;;4.70;3.20;;;;;;;;;;4919774;29;20052;-80
2024/01/29 00:31:07;;;;;;;4.97;3.35;;;;;;;;;;4920350;29;20044;-79
2024/01/29 00:33:32;;;;;;;6.55;3.55;;;5.90;99.90;;;;;;4921499;29;20054;-79
2024/01/29 00:35:58;;;;;;;8.15;3.47;;;5.70;99.90;;;;;;4924814;29;20043;-79
2024/01/29 00:38:24;;;;;;;6.75;3.90;;;;;;;;;;4920305;29;20044;-80
2024/01/29 00:40:55;;;;;;;3.75;3.35;;;;;;;;;;4923511;29;20139;-80
2024/01/29 00:43:21;;;;;;;5.65;3.50;;;;;;;;;;4907517;29;20054;-80
2024/01/29 00:45:47;;;;;;;6.03;3.50;;;5.30;99.90;;;;;;4910033;29;20047;-80
2024/01/29 00:48:12;;;;;;;5.60;3.30;;;5.50;99.90;;;;;;4924589;29;20040;-80
2024/01/29 00:50:38;;;;;;;5.68;3.55;;;5.30;99.90;;;;;;4921789;29;20079;-79
2024/01/29 00:53:05;;;;;;;4.85;3.28;;;5.30;99.90;;;;;;4886514;29;20040;-80
2024/01/29 00:55:31;;;;;;;5.13;3.30;;;5.20;99.90;;;;;;4918020;29;20048;-79
2024/01/29 00:57:57;;;;;;;6.45;3.92;;;5.30;99.90;;;;;;4919471;29;20300;-79
2024/01/29 01:00:22;;;;;;;5.50;3.78;;;5.20;99.90;;;;;;4912438;29;20054;-79
2024/01/29 01:02:48;;;;;;;7.35;3.83;;;5.20;99.90;;;;;;4900097;29;20521;-80
2024/01/29 01:05:13;;;;;;;5.53;3.63;;;5.10;99.90;;;;;;4919516;29;20044;-80
2024/01/29 01:07:39;;;;;;;5.22;3.90;;;5.30;99.90;;;;;;4901036;29;20056;-80
2024/01/29 01:10:05;;;;;;;5.63;3.53;;;5.00;99.90;;;;;;4918804;29;20079;-80
2024/01/29 01:12:31;;;;;;;6.40;3.85;;;5.00;99.90;;;;;;4919241;29;20052;-80
2024/01/29 01:14:56;;;;;;;5.38;3.90;;;5.00;99.90;;;;;;4902041;29;20048;-80
2024/01/29 01:17:22;;;;;;;5.68;3.75;;;4.90;99.90;;;;;;4921282;29;20052;-81
2024/01/29 01:19:47;;;;;;;5.30;3.60;;;4.90;99.90;;;;;;4923748;29;20048;-81
2024/01/29 01:22:14;;;;;;;5.35;3.97;;;4.80;99.90;;;;;;4902156;29;20079;-81
2024/01/29 01:24:40;;;;;;;5.40;3.90;;;4.70;99.90;;;;;;4903085;29;20302;-81
2024/01/29 01:27:05;;;;;;;5.65;3.83;;;4.80;99.90;;;;;;4896664;29;20052;-81
2024/01/29 01:29:31;;;;;;;7.20;4.13;;;4.80;99.90;;;;;;4879667;29;20040;-80
2024/01/29 01:31:57;;;;;;;8.23;4.25;;;4.90;99.90;;;;;;4905155;29;20469;-81
2024/01/29 01:34:22;;;;;;;7.30;3.97;;;4.80;99.90;;;;;;4905420;29;20109;-80
2024/01/29 01:36:48;;;;;;;6.25;3.88;;;4.80;99.90;;;;;;4904571;29;20055;-79
2024/01/29 01:39:13;;;;;;;5.88;3.75;;;4.70;99.90;;;;;;4921603;29;20051;-79
2024/01/29 01:41:39;;;;;;;5.03;3.65;;;4.80;99.90;;;;;;4922551;29;20048;-80
2024/01/29 01:44:04;;;;;;;7.15;3.53;;;4.80;99.90;;;;;;4904707;29;20973;-80
2024/01/29 01:46:30;;;;;;;4.28;3.50;;;4.80;99.90;;;;;;4922668;29;20050;-80
2024/01/29 01:48:56;;;;;;;5.93;3.63;;;4.80;99.90;;;;;;4925221;29;20047;-80
2024/01/29 01:51:23;;;;;;;6.72;3.67;;;4.90;99.90;;;;;;4927099;29;20051;-80
2024/01/29 01:53:54;;;;;;;6.57;4.55;;;4.90;99.90;;;;;;4923220;29;20112;-80
2024/01/29 01:56:20;;;;;;;5.30;3.90;;;4.80;99.90;;;;;;4906418;29;20099;-80
2024/01/29 01:58:46;;;;;;;4.68;3.80;;;4.80;99.90;;;;;;4921348;29;20043;-80
2024/01/29 02:01:15;;;;;;;6.20;4.50;;;4.80;99.90;;;;;;4919528;29;20056;-80
2024/01/29 02:03:42;;;;;;;4.68;3.92;;;4.80;99.90;;;;;;4906007;29;20052;-80
2024/01/29 02:06:09;;;;;;;6.43;4.05;;;4.80;99.90;;;;;;4922287;29;20052;-80
2024/01/29 02:08:34;;;;;;;5.53;3.97;;;4.80;99.90;;;;;;4908114;29;20040;-81
2024/01/29 02:11:00;;;;;;;7.15;4.10;;;4.90;99.90;;;;;;4924067;29;20135;-80
2024/01/29 02:13:26;;;;;;;7.05;3.95;;;4.90;99.90;;;;;;4892121;29;20047;-80
2024/01/29 02:15:52;;;;;;;7.22;4.32;;;5.00;99.90;;;;;;4904131;29;20036;-79
2024/01/29 02:18:17;;;;;;;5.82;4.07;;;4.90;99.90;;;;;;4920003;29;20047;-79
2024/01/29 02:20:43;;;;;;;5.95;4.00;;;4.90;99.90;;;;;;4921427;29;20056;-79
2024/01/29 02:23:08;;;;;;;5.63;4.05;;;4.90;99.90;;;;;;4917664;29;20100;-79
2024/01/29 02:25:35;;;;;;;7.13;4.53;;;5.10;99.90;;;;;;4919550;29;20127;-79
2024/01/29 02:28:00;;;;;;;4.97;3.90;;;5.00;99.90;;;;;;4919995;29;20052;-79
2024/01/29 02:30:26;;;;;;;6.82;4.13;;;5.00;99.90;;;;;;4917359;29;20044;-79
2024/01/29 02:32:52;;;;;;;6.07;3.72;;;5.00;99.90;;;;;;4918090;29;20040;-80
2024/01/29 02:35:17;;;;;;;8.13;4.50;;;4.90;99.90;;;;;;4921397;29;20052;-80
2024/01/29 02:37:43;;;;;;;6.35;4.10;;;4.80;99.90;;;;;;4904994;29;20052;-80
2024/01/29 02:40:09;;;;;;;6.72;4.70;;;4.80;99.90;;;;;;4921210;29;20044;-80
2024/01/29 02:42:35;;;;;;;6.30;4.22;;;4.80;99.90;;;;;;4898273;29;20079;-80
2024/01/29 02:45:03;;;;;;;6.40;4.47;;;4.90;99.90;;;;;;4906510;29;20048;-80
2024/01/29 02:47:28;;;;;;;5.90;4.20;;;4.80;99.90;;;;;;4903001;29;20132;-81
2024/01/29 02:49:54;;;;;;;5.93;4.10;;;4.70;99.90;;;;;;4899347;29;20134;-80
2024/01/29 02:52:20;;;;;;;7.47;4.15;;;4.70;99.90;;;;;;4920579;29;20048;-82
2024/01/29 02:54:48;;;;;;;7.78;4.55;;;;;;;;;;4923025;29;20165;-82
2024/01/29 02:57:14;;;;;;;6.50;4.37;;;;;;;;;;4899503;29;20044;-82
2024/01/29 02:59:40;;;;;;;5.90;4.35;;;;;;;;;;4888162;29;20044;-82
2024/01/29 03:02:07;;;;;;;8.13;4.00;;;;;;;;;;4902215;29;20067;-82
2024/01/29 03:04:33;;;;;;;7.25;4.32;;;;;;;;;;4903436;29;20052;-82
2024/01/29 03:06:59;;;;;;;5.03;4.13;;;;;;;;;;4920860;29;20044;-81
2024/01/29 03:09:25;;;;;;;5.30;3.97;;;;;;;;;;4903654;29;20051;-80
2024/01/29 03:11:51;;;;;;;5.97;4.35;;;;;;;;;;4906268;29;20532;-81
2024/01/29 03:14:17;;;;;;;4.78;4.20;;;;;;;;;;4923086;29;20063;-81
2024/01/29 03:16:43;;;;;;;5.55;4.15;;;;;;;;;;4903824;29;20103;-82
2024/01/29 03:19:09;;;;;;;7.78;4.50;;;;;;;;;;4908712;29;20138;-80
2024/01/29 03:21:35;;;;;;;5.55;4.40;;;;;;;;;;4904312;29;20751;-81
2024/01/29 03:24:01;;;;;;;5.95;4.07;;;;;;;;;;4888588;29;20075;-81
2024/01/29 03:26:28;;;;;;;6.72;4.60;;;;;;;;;;4920157;29;20055;-82
2024/01/29 03:28:54;;;;;;;4.93;4.03;;;;;;;;;;4893103;29;20127;-81
2024/01/29 03:31:20;;;;;;;6.25;4.47;;;;;;;;;;4905235;29;21355;-80
2024/01/29 03:33:46;;;;;;;4.97;4.30;;;;;;;;;;4902176;29;20051;-81
2024/01/29 03:36:12;;;;;;;6.53;4.43;;;;;;;;;;4918620;29;20071;-81
2024/01/29 03:38:38;;;;;;;5.25;4.05;;;;;;;;;;4902040;29;20122;-81
2024/01/29 03:41:04;;;;;;;6.97;4.57;;;;;;;;;;4904231;29;20048;-82
2024/01/29 03:43:30;;;;;;;7.15;4.20;;;;;;;;;;4919126;29;20055;-82
2024/01/29 03:45:56;;;;;;;6.00;4.50;;;;;;;;;;4914607;29;20491;-82
2024/01/29 03:48:22;;;;;;;5.53;4.25;;;4.60;99.90;;;;;;4918798;29;20043;-82
2024/01/29 03:50:47;;;;;;;7.55;4.50;;;4.50;99.90;;;;;;4909915;29;20048;-82
2024/01/29 03:53:13;;;;;;;5.03;4.10;;;4.40;99.90;;;;;;4886661;29;20071;-81
2024/01/29 03:55:39;;;;;;;5.30;4.50;;;4.40;99.90;;;;;;4900022;29;20043;-81
2024/01/29 03:58:04;;;;;;;6.32;4.30;;;4.40;99.90;;;;;;4912012;29;20170;-80
2024/01/29 04:00:31;;;;;;;6.80;4.25;;;4.40;99.90;;;;;;4913876;29;20054;-80
2024/01/29 04:02:57;;;;;;;7.53;4.88;;;4.50;99.90;;;;;;4875496;29;20570;-80
2024/01/29 04:05:22;;;;;;;8.18;4.70;;;4.40;99.90;;;;;;4913068;29;20135;-80
2024/01/29 04:07:48;;;;;;;7.88;4.22;;;4.40;99.90;;;;;;4915646;29;20071;-81
2024/01/29 04:10:15;;;;;;;4.85;4.32;;;4.40;99.90;;;;;;4894993;29;20064;-80
2024/01/29 04:12:41;;;;;;;6.20;4.93;;;4.40;99.90;;;;;;4903882;29;20118;-80
2024/01/29 04:15:07;;;;;;;6.35;4.75;;;4.40;99.90;;;;;;4899699;29;20110;-80
2024/01/29 04:17:33;;;;;;;6.93;4.78;;;4.40;99.90;;;;;;4916733;29;20032;-80
2024/01/29 04:19:59;;;;;;;5.53;4.50;;;4.40;99.90;;;;;;4921141;29;20124;-80
2024/01/29 04:22:25;;;;;;;7.22;4.85;;;4.30;99.90;;;;;;4920108;29;20052;-80
2024/01/29 04:24:51;;;;;;;7.28;4.57;;;4.30;99.90;;;;;;4899836;29;20051;-81
2024/01/29 04:27:17;;;;;;;6.88;4.68;;;4.30;99.90;;;;;;4915545;29;20047;-80
2024/01/29 04:29:43;;;;;;;6.72;4.50;;;4.30;99.90;;;;;;4922514;29;20546;-80
2024/01/29 04:32:09;;;;;;;6.68;4.22;;;4.30;99.90;;;;;;4906793;29;20465;-80
2024/01/29 04:34:35;;;;;;;5.25;4.28;;;4.30;99.90;;;;;;4880542;29;20495;-81
2024/01/29 04:37:00;;;;;;;6.95;4.57;;;4.30;99.90;;;;;;4899424;29;20040;-80
2024/01/29 04:39:26;;;;;;;6.82;4.78;;;4.30;99.90;;;;;;4902360;29;20044;-80
2024/01/29 04:41:52;;;;;;;6.97;4.60;;;4.30;99.90;;;;;;4914897;29;20043;-80
2024/01/29 04:44:18;;;;;;;7.13;4.60;;;4.30;99.90;;;;;;4898582;29;22102;-79
2024/01/29 04:46:44;;;;;;;5.95;4.95;;;4.30;99.90;;;;;;4900491;29;20048;-79
2024/01/29 04:49:09;;;;;;;5.80;4.53;;;4.30;99.90;;;;;;4900608;29;20082;-79
2024/01/29 04:51:35;;;;;;;5.93;4.47;;;4.20;99.90;;;;;;4916205;29;20336;-78
2024/01/29 04:54:00;;;;;;;6.13;4.68;;;4.20;99.90;;;;;;4912678;29;20052;-78
2024/01/29 04:56:26;;;;;;;4.88;4.43;;;4.10;99.90;;;;;;4896179;29;20050;-78
2024/01/29 04:58:52;;;;;;;7.03;4.78;;;4.20;99.90;;;;;;4911492;29;20037;-78
2024/01/29 05:01:17;;;;;;;7.63;4.47;;;4.20;99.90;;;;;;4900563;29;20175;-79
2024/01/29 05:03:43;;;;;;;8.20;4.85;;;4.00;99.90;;;;;;4900290;29;20039;-79
2024/01/29 05:06:09;;;;;;;7.60;4.70;;;4.00;99.90;;;;;;4915480;29;20052;-79
2024/01/29 05:08:35;;;;;;;5.53;4.50;;;3.90;99.90;;;;;;4898347;29;20041;-79
2024/01/29 05:11:01;;;;;;;6.15;5.07;;;3.90;99.90;;;;;;4914252;29;20039;-79
2024/01/29 05:13:26;;;;;;;7.88;5.03;;;3.90;99.90;;;;;;4881140;29;20044;-79
2024/01/29 05:15:52;;;;;;;9.32;5.28;;;3.90;99.90;;;;;;4917295;29;20052;-79
2024/01/29 05:18:18;;;;;;;6.03;4.55;;;3.90;99.90;;;;;;4879826;29;20140;-79
2024/01/29 05:20:43;;;;;;;8.20;5.43;;;3.90;99.90;;;;;;4904652;29;20048;-80
2024/01/29 05:23:09;;;;;;;6.05;5.22;;;3.80;99.90;;;;;;4900920;29;20036;-81
2024/01/29 05:25:35;;;;;;;7.68;5.18;;;3.80;99.90;;;;;;4898796;29;20107;-82
2024/01/29 05:28:04;;;;;;;6.78;5.05;;;3.80;99.90;;;;;;4919668;29;20044;-81
2024/01/29 05:30:29;;;;;;;5.75;5.00;;;3.80;99.90;;;;;;4915408;29;20047;-79
2024/01/29 05:32:55;;;;;;;7.90;5.20;;;3.80;99.90;;;;;;4916653;29;20036;-80
2024/01/29 05:35:21;;;;;;;7.63;4.70;;;3.90;99.90;;;;;;4904227;29;20588;-79
2024/01/29 05:37:46;;;;;;;6.25;4.97;;;4.00;99.90;;;;;;4887036;29;20191;-80
2024/01/29 05:40:12;;;;;;;5.90;4.57;;;4.00;99.90;;;;;;4920485;29;20197;-81
2024/01/29 05:42:38;;;;;;;6.53;5.03;;;4.00;99.90;;;;;;4902433;29;20087;-81
2024/01/29 05:45:07;;;;;;;7.95;4.95;;;4.00;99.90;;;;;;4905612;29;20503;-82
2024/01/29 05:47:33;;;;;;;5.32;4.70;;;3.90;99.90;;;;;;4908008;29;20147;-81
2024/01/29 05:50:00;;;;;;;8.93;5.13;;;4.00;99.90;;;;;;4885822;29;20055;-81
2024/01/29 05:52:25;;;;;;;7.70;4.72;;;4.00;99.90;;;;;;4901718;29;20048;-81
2024/01/29 05:54:51;;;;;;;8.25;5.07;;;4.00;99.90;;;;;;4899064;29;20497;-81
2024/01/29 05:57:17;;;;;;;6.40;4.57;;;4.00;99.90;;;;;;4914576;29;20040;-81
2024/01/29 05:59:42;;;;;;;6.18;5.05;;;4.00;99.90;;;;;;4897650;29;20239;-80
2024/01/29 06:02:08;;;;;;;5.63;5.03;;;4.10;99.90;;;;;;4919687;29;20048;-80
2024/01/29 06:04:34;;;;;;;7.30;5.10;;;4.10;99.90;;;;;;4901790;29;21006;-79
2024/01/29 06:07:00;;;;;;;8.18;5.22;;;4.10;99.90;;;;;;4904506;29;20083;-80
2024/01/29 06:09:25;;;;;;;6.25;4.70;;;4.10;99.90;;;;;;4885182;29;20040;-80
2024/01/29 06:11:53;;;;;;;7.03;5.10;;;4.10;99.90;;;;;;4900435;29;20040;-81
2024/01/29 06:14:19;;;;;;;6.65;5.00;;;4.20;99.90;;;;;;4917776;29;20055;-81
2024/01/29 06:16:44;;;;;;;6.72;5.70;;;4.10;99.90;;;;;;4910754;29;20502;-81
2024/01/29 06:19:15;;;;;;;7.15;4.93;;;4.20;99.90;;;;;;4919470;29;20050;-81
2024/01/29 06:21:42;;;;;;;6.43;4.80;;;4.10;99.90;;;;;;4917282;29;20044;-80
2024/01/29 06:24:08;;;;;;;5.60;4.65;;;4.00;99.90;;;;;;4914158;29;20037;-80
2024/01/29 06:26:35;;;;;;;5.68;5.05;;;4.00;99.90;;;;;;4922668;29;20099;-80
2024/01/29 06:29:00;;;;;;;8.43;5.30;;;3.90;99.90;;;;;;4917618;29;20036;-80
2024/01/29 06:31:27;;;;;;;7.68;5.20;;;3.90;99.90;;;;;;4915150;29;20054;-81
2024/01/29 06:33:54;;;;;;;7.65;5.07;;;3.90;99.90;;;;;;4904674;29;20107;-80
2024/01/29 06:36:20;;;;;;;6.25;5.22;;;3.90;99.90;;;;;;4889149;29;20046;-80
2024/01/29 06:38:46;;;;;;;8.27;5.75;;;4.00;99.90;;;;;;4909132;29;20044;-80
2024/01/29 06:41:22;;;;;;;6.75;5.43;;;3.90;99.90;;;;;;4922724;29;20060;-80
2024/01/29 06:43:49;;;;;;;9.10;5.13;;;3.90;99.90;;;;;;4883538;29;20123;-80
2024/01/29 06:46:14;;;;;;;10.68;5.40;;;3.80;99.90;;;;;;4877427;29;20084;-80
2024/01/29 06:48:40;;;;;;;6.78;5.45;;;3.90;99.90;;;;;;4920035;29;20454;-79
2024/01/29 06:51:06;;;;;;;7.32;5.43;;;3.80;99.90;;;;;;4918729;29;20044;-79
2024/01/29 06:53:35;;;;;;;5.85;5.00;;;3.90;99.90;;;;;;4920842;29;20395;-80
2024/01/29 06:56:04;;;;;;;6.47;5.28;;;3.90;99.90;;;;;;4915954;29;20411;-80
2024/01/29 06:58:30;;;;;;;7.50;5.68;;;3.90;99.90;;;;;;4920394;29;20044;-80
2024/01/29 07:00:56;;;;;;;9.10;5.30;;;3.90;99.90;;;;;;4921608;29;20052;-80
2024/01/29 07:03:21;;;;;;;6.55;5.32;;;3.90;99.90;;;;;;4923215;29;20055;-80
2024/01/29 07:05:50;;;;;;;6.43;5.22;;;3.90;99.90;;;;;;4913712;29;20188;-79
2024/01/29 07:08:16;;;;;;;6.80;5.47;;;3.90;99.90;;;;;;4900572;29;20040;-80
2024/01/29 07:10:42;;;;;;;6.90;5.22;;;3.90;99.90;;;;;;4919082;29;20391;-80
2024/01/29 07:13:08;;;;;;;8.52;5.72;;;3.90;99.90;;;;;;4900135;29;20060;-80
2024/01/29 07:15:34;;;;;;;7.03;5.30;;;3.90;99.90;;;;;;4895426;29;20529;-80
2024/01/29 07:18:00;;;;;;;8.25;5.60;;;3.80;99.90;;;;;;4902463;29;20047;-80
2024/01/29 07:20:29;;;;;;;8.90;5.32;;;3.80;99.90;;;;;;4901926;29;20052;-81
2024/01/29 07:22:55;;;;;;;7.03;5.38;;;3.90;99.90;;;;;;4876774;29;20036;-80
2024/01/29 07:25:21;;;;;;;7.03;5.35;;;3.80;99.90;;;;;;4900673;29;20068;-82
2024/01/29 07:27:47;;;;;;;7.13;5.40;;;3.80;99.90;;;;;;4883552;29;20036;-82
2024/01/29 07:30:13;;;;;;;7.38;5.53;;;3.90;99.90;;;;;;4920781;29;20048;-83
2024/01/29 07:32:39;;;;;;;6.88;5.53;;;3.90;99.90;;;;;;4918067;29;20099;-82
2024/01/29 07:35:06;;;;;;;7.07;5.40;;;3.90;99.90;;;;;;4901160;29;20451;-81
2024/01/29 07:37:32;;;;;;;6.93;5.55;;;3.90;99.90;;;;;;4894384;29;20040;-82
2024/01/29 07:39:58;;;;;;;5.95;5.00;;;3.90;99.90;;;;;;4901732;29;20059;-82
2024/01/29 07:42:23;;;;;;;8.70;5.68;;;4.00;99.90;;;;;;4922804;29;20123;-82
2024/01/29 07:44:51;;;;;;;7.50;5.70;;;3.90;99.90;;;;;;4924402;29;20079;-81
2024/01/29 07:47:17;;;;;;;7.07;5.57;;;4.00;99.90;;;;;;4921315;29;20052;-81
2024/01/29 07:49:42;;;;;;;6.53;5.18;;;4.10;99.90;;;;;;4921591;29;20058;-80
2024/01/29 07:52:09;;;;;;;7.65;5.75;;;4.10;99.90;;;;;;4884909;29;20055;-80
2024/01/29 07:54:35;;;;;;;6.60;5.60;;;4.10;99.90;;;;;;4904362;29;20491;-80
2024/01/29 07:57:01;;;;;;;8.73;5.60;;;4.20;99.90;;;;;;4888378;29;20047;-81
2024/01/29 07:59:27;;;;;;;8.05;5.35;;;4.30;99.90;;;;;;4915472;29;20036;-81
2024/01/29 08:01:53;;;;;;;6.57;5.38;;;4.30;99.90;;;;;;4921608;29;20510;-79
2024/01/29 08:04:18;;;;;;;6.68;5.10;;;4.30;99.90;;;;;;4917568;29;20120;-81
2024/01/29 08:06:44;;;;;;;6.07;5.43;;;4.40;99.90;;;;;;4919008;29;20044;-81
2024/01/29 08:09:09;;;;;;;7.80;4.93;;;4.50;99.90;;;;;;4918357;29;20123;-82
2024/01/29 08:11:35;;;;;;;7.90;5.75;;;4.60;99.90;;;;;;4900863;29;20040;-81
2024/01/29 08:14:01;;;;;;;9.35;5.72;;;4.60;99.90;;;;;;4885377;29;20124;-80
2024/01/29 08:16:26;;;;;;;8.02;5.47;;;4.70;99.90;;;;;;4913911;29;20040;-79
2024/01/29 08:18:52;;;;;;;6.75;5.43;;;4.70;99.90;;;;;;4911678;29;20818;-81
2024/01/29 08:21:18;;;;;;;7.63;5.90;;;4.90;99.90;;;;;;4916008;29;20048;-79
2024/01/29 08:23:44;;;;;;;6.70;5.53;;;4.90;99.90;;;;;;4911272;29;20367;-78
2024/01/29 08:26:10;;;;;;;8.38;5.65;;;4.90;99.90;;;;;;4909364;29;20056;-76
2024/01/29 08:28:36;;;;;;;6.80;5.47;;;5.00;99.90;;;;;;4895301;29;20060;-78
2024/01/29 08:31:02;;;;;;;6.45;5.45;;;5.00;99.90;;;;;;4908178;29;20121;-78
2024/01/29 08:33:28;;;;;;;7.30;5.78;;;5.10;99.90;;;;;;4915767;29;20395;-77
2024/01/29 08:35:57;;;;;;;6.47;5.10;;;5.10;99.90;;;;;;4915431;29;20036;-78
2024/01/29 08:38:23;;;;;;;6.07;5.35;;;5.20;99.90;;;;;;4916158;29;20103;-79
2024/01/29 08:40:50;;;;;;;7.70;5.70;;;5.20;99.90;;;;;;4920808;29;20052;-80
2024/01/29 08:43:15;;;;;;;6.05;5.45;;;5.30;99.90;;;;;;4913479;29;20131;-79
2024/01/29 08:45:44;;;;;;;7.93;6.05;;;5.40;99.90;;;;;;4911802;29;20055;-79
2024/01/29 08:48:10;;;;;;;9.85;6.05;;;5.50;99.90;;;;;;4910496;29;20036;-77
2024/01/29 08:50:35;;;;;;;7.57;6.03;;;5.60;99.90;;;;;;4908913;29;20519;-78
2024/01/29 08:53:03;;;;;;;6.78;5.50;;;5.60;99.90;;;;;;4880807;29;20406;-77
2024/01/29 08:55:30;;;;;;;6.20;5.60;;;5.70;99.90;;;;;;4912884;29;20111;-78
2024/01/29 08:57:55;;;;;;;6.70;6.03;;;5.80;99.90;;;;;;4912224;29;20515;-78
2024/01/29 09:00:21;;;;;;;7.53;5.97;;;5.90;99.90;;;;;;4880071;29;20059;-78
2024/01/29 09:02:49;;;;;;;7.28;6.00;;;6.00;99.90;;;;;;4910123;29;20167;-78
2024/01/29 09:05:16;;;;;;;7.03;6.18;;;6.00;99.90;;;;;;4893368;29;20040;-78
2024/01/29 09:07:42;;;;;;;6.78;5.40;;;6.30;99.90;;;;;;4911168;29;20081;-78
2024/01/29 09:10:08;;;;;;;7.10;6.05;;;6.00;99.90;;;;;;4913073;29;20127;-78
2024/01/29 09:12:33;;;;;;;6.93;5.53;;;6.10;99.90;;;;;;4909839;29;20055;-78
2024/01/29 09:14:59;;;;;;;8.57;5.95;;;6.20;99.90;;;;;;4909155;29;20040;-77
2024/01/29 09:17:25;;;;;;;6.53;5.90;;;6.20;99.90;;;;;;4912148;29;20498;-77
2024/01/29 09:19:51;;;;;;;8.48;5.80;;;6.20;99.90;;;;;;4915962;29;20491;-78
2024/01/29 09:22:17;;;;;;;6.63;5.57;;;6.30;99.90;;;;;;4913031;29;20048;-76
2024/01/29 09:24:43;;;;;;;11.63;6.35;;;6.30;99.90;;;;;;4912854;29;20043;-78
2024/01/29 09:27:10;;;;;;;8.18;5.95;;;;;;;;;;4897319;29;20415;-78
2024/01/29 09:29:35;;;;;;;7.90;5.97;;;6.30;99.90;;;;;;4914762;29;20047;-78
2024/01/29 09:32:01;;;;;;;7.88;5.80;;;6.40;99.90;;;;;;4915922;29;20082;-78
2024/01/29 09:34:27;;;;;;;8.70;6.18;;;6.40;99.90;;;;;;4912724;29;20509;-76
2024/01/29 09:36:53;;;;;;;7.60;6.28;;;6.40;99.90;;;;;;4909555;29;20055;-76
2024/01/29 09:39:19;;;;;;;8.35;6.28;;;6.50;99.90;;;;;;4914432;29;20403;-77
2024/01/29 09:41:46;;;;;;;7.95;6.47;;;6.50;99.90;;;;;;4918305;29;20051;-77
2024/01/29 09:44:12;;;;;;;6.93;6.23;;;6.60;99.90;;;;;;4916002;29;20054;-77
2024/01/29 09:46:40;;;;;;;8.75;6.40;;;6.70;99.90;;;;;;4912464;29;20048;-78
2024/01/29 09:49:06;;;;;;;7.90;6.18;;;6.70;99.90;;;;;;4911927;29;20044;-78
2024/01/29 09:51:33;;;;;;;8.60;6.60;;;6.80;99.90;;;;;;4911171;29;20134;-77
2024/01/29 09:54:03;;;;;;;7.93;6.20;;;;;;;;;;4909877;29;20075;-77
2024/01/29 09:56:29;;;;;;;7.80;6.13;;;7.00;99.90;;;;;;4902869;29;20496;-77
2024/01/29 09:58:55;;;;;;;7.75;6.28;;;7.20;99.90;;;;;;4897729;29;20054;-78
2024/01/29 10:01:22;;;;;;;8.27;6.40;;;7.10;99.90;;;;;;4886023;29;20396;-77
2024/01/29 10:03:49;;;;;;;9.10;6.30;;;7.10;99.90;;;;;;4905402;29;20047;-77
2024/01/29 10:06:15;;;;;;;9.68;6.90;;;7.20;99.90;;;;;;4905653;29;20052;-77
2024/01/29 10:08:41;;;;;;;7.90;6.40;;;7.30;99.90;;;;;;4923067;29;20071;-77
2024/01/29 10:11:07;;;;;;;8.40;6.70;;;7.30;99.90;;;;;;4912384;29;20051;-77
2024/01/29 10:13:34;;;;;;;8.10;6.85;;;7.50;99.90;;;;;;4902308;29;20047;-77
2024/01/29 10:16:00;;;;;;;8.85;7.15;;;7.50;99.90;;;;;;4920671;29;20050;-77
2024/01/29 10:18:25;;;;;;;8.25;7.10;;;7.50;99.90;;;;;;4902494;29;20123;-77
2024/01/29 10:21:01;;;;;;;7.97;6.50;;;7.50;99.90;;;;;;4921922;29;20052;-77
2024/01/29 10:23:27;;;;;;;8.65;6.53;;;7.50;99.90;;;;;;4916978;29;20056;-77
2024/01/29 10:25:57;;;;;;;8.88;7.00;;;;;;;;;;4914768;29;20052;-77
2024/01/29 10:28:23;;;;;;;8.90;6.78;;;7.60;99.90;;;;;;4916333;29;20123;-76
2024/01/29 10:30:50;;;;;;;7.70;6.90;;;7.70;99.90;;;;;;4922329;29;20059;-76
2024/01/29 10:33:16;;;;;;;10.32;7.25;;;7.70;99.90;;;;;;4920309;29;20048;-77
2024/01/29 10:35:41;;;;;;;14.00;7.63;;;7.70;99.90;;;;;;4916800;29;20036;-77
2024/01/29 10:38:07;;;;;;;10.00;7.25;;;7.80;99.90;;;;;;4920178;29;20047;-77
2024/01/29 10:40:35;;;;;;;11.13;7.03;;;7.80;99.90;;;;;;4900795;29;20468;-77
2024/01/29 10:43:01;;;;;;;8.98;6.72;;;7.80;99.90;;;;;;4889052;29;20127;-78
2024/01/29 10:45:28;;;;;;;7.90;7.10;;;7.90;99.90;;;;;;4904015;29;20036;-77
2024/01/29 10:48:18;;;;;;;9.18;7.22;;;7.90;99.90;;;;;;4917780;29;20052;-78
2024/01/29 10:50:46;;;;;;;9.70;7.22;;;8.00;99.90;;;;;;4916015;29;20515;-77
2024/01/29 10:53:13;;;;;;;9.40;7.85;;;8.00;99.90;;;;;;4921512;29;20059;-77
2024/01/29 10:55:39;;;;;;;8.82;7.88;;;8.00;99.90;;;;;;4913593;29;20048;-77
2024/01/29 10:58:07;;;;;;;8.57;7.78;;;8.00;99.90;;;;;;4913759;29;20048;-77
2024/01/29 11:00:35;;;;;;;8.90;7.55;;;8.00;99.90;;;;;;4919916;29;20048;-76
2024/01/29 11:03:03;;;;;;;9.48;7.40;;;8.00;99.90;;;;;;4888170;29;20451;-76
2024/01/29 11:05:30;;;;;;;9.43;7.80;;;8.00;99.90;;;;;;4883352;29;20056;-76
2024/01/29 11:07:58;;;;;;;11.98;8.00;;;7.90;99.90;;;;;;4885594;29;20052;-78
2024/01/29 11:10:24;;;;;;;9.82;8.13;;;8.00;99.90;;;;;;4912322;29;20068;-77
2024/01/29 11:12:53;;;;;;;12.35;8.45;;;8.00;99.90;;;;;;4914678;29;20525;-77
2024/01/29 11:15:19;;;;;;;11.30;8.75;;;8.10;99.90;;;;;;4899216;29;20111;-79
2024/01/29 11:17:45;;;;;;;9.82;7.97;;;8.20;99.90;;;;;;4901911;29;20052;-77
2024/01/29 11:20:14;;;;;;;11.18;8.45;;;8.30;99.90;;;;;;4916024;29;20052;-77
2024/01/29 11:22:41;;;;;;;11.32;8.23;;;8.30;99.90;;;;;;4913031;29;20139;-76
2024/01/29 11:25:17;;;;;;;9.85;8.88;;;8.50;99.90;;;;;;4910248;29;20047;-77
2024/01/29 11:27:45;;;;;;;10.25;8.27;;;8.60;99.90;;;;;;4882957;29;20056;-76
2024/01/29 11:30:20;;;;;;;9.87;8.80;;;8.70;99.90;;;;;;4898199;29;20052;-77
2024/01/29 11:32:47;;;;;;;9.10;8.20;;;8.80;99.90;;;;;;4916183;29;20046;-77
2024/01/29 11:35:14;;;;;;;8.88;7.88;;;9.00;99.90;;;;;;4907254;29;20111;-77
2024/01/29 11:37:40;;;;;;;9.30;8.35;;;9.00;99.90;;;;;;4903002;29;20044;-77
2024/01/29 11:40:33;;;;;;;9.27;8.10;;;9.00;99.90;;;;;;4897759;29;20055;-77
2024/01/29 11:43:08;;;;;;;10.95;9.02;;;9.10;99.90;;;;;;4905629;29;20071;-77
2024/01/29 11:45:36;;;;;;;9.70;8.27;;;9.20;99.90;;;;;;4898387;29;20052;-77
2024/01/29 11:48:02;;;;;;;11.15;8.43;;;9.20;99.90;;;;;;4897413;29;20083;-77
2024/01/29 11:50:28;;;;;;;11.93;8.75;;;9.40;99.90;;;;;;4901509;29;20075;-77
2024/01/29 11:52:54;;;;;;;9.68;8.45;;;9.40;99.90;;;;;;4921826;29;20087;-77
2024/01/29 11:55:21;;;;;;;12.50;8.50;;;9.50;99.90;;;;;;4917337;29;20060;-77
2024/01/29 11:57:47;;;;;;;9.15;8.15;;;9.60;99.90;;;;;;4916645;29;20150;-77
2024/01/29 12:00:21;;;;;;;10.95;8.88;;;9.70;99.90;;;;;;4898213;29;20476;-78
2024/01/29 12:02:50;;;;;;;9.90;8.25;;;9.70;99.90;;;;;;4895659;29;20067;-77
2024/01/29 12:05:17;;;;;;;10.18;8.40;;;9.80;99.90;;;;;;4915078;29;20491;-77
2024/01/29 12:07:48;;;;;;;9.65;8.75;;;9.80;99.90;;;;;;4914754;29;20083;-77
2024/01/29 12:10:14;;;;;;;9.68;8.63;;;9.80;99.90;;;;;;4913473;29;20036;-77
2024/01/29 12:12:40;;;;;;;11.98;8.88;;;9.90;99.90;;;;;;4915085;29;20470;-77
2024/01/29 12:15:08;;;;;;;10.25;8.75;;;9.90;99.90;;;;;;4915178;29;20123;-77
2024/01/29 12:17:38;;;;;;;10.73;8.73;;;10.00;99.90;;;;;;4876685;29;20048;-77
2024/01/29 12:20:05;;;;;;;10.38;9.35;;;10.00;99.90;;;;;;4913287;29;20052;-77
2024/01/29 12:22:31;;;;;;;9.90;8.90;;;10.10;99.90;;;;;;4918976;29;20048;-77
2024/01/29 12:24:57;;;;;;;10.07;9.07;;;10.20;99.90;;;;;;4913649;29;20040;-77
2024/01/29 12:27:23;;;;;;;10.43;9.13;;;10.30;99.90;;;;;;4913971;29;20056;-79
2024/01/29 12:29:50;;;;;;;10.48;9.38;;;10.30;99.90;;;;;;4889816;29;20052;-77
2024/01/29 12:32:20;;;;;;;14.38;10.25;;;10.40;99.90;;;;;;4896739;29;20093;-79
2024/01/29 12:34:50;;;;;;;11.32;9.55;;;10.60;99.90;;;;;;4884538;29;20048;-77
2024/01/29 12:37:22;;;;;;;10.43;9.40;;;10.60;99.90;;;;;;4891842;29;20411;-78
2024/01/29 12:39:55;;;;;;;11.15;9.40;;;10.60;99.90;;;;;;4907744;29;20071;-78
2024/01/29 12:42:25;;;;;;;16.75;9.57;;;10.50;99.90;;;;;;4912691;29;20469;-78
2024/01/29 12:44:51;;;;;;;12.77;9.65;;;10.40;99.90;;;;;;4911148;29;20484;-78
2024/01/29 12:47:22;;;;;;;12.10;9.77;;;10.60;99.90;;;;;;4917098;29;20518;-78
2024/01/29 12:49:48;;;;;;;12.32;9.63;;;10.60;99.90;;;;;;4902376;29;20055;-77
2024/01/29 12:52:15;;;;;;;14.23;9.90;;;10.70;99.90;;;;;;4917202;29;20472;-77
2024/01/29 12:54:47;;;;;;;12.65;10.00;;;10.70;99.90;;;;;;4898887;29;20047;-78
2024/01/29 12:57:13;;;;;;;10.95;9.95;;;10.80;99.90;;;;;;4920399;29;20048;-77
2024/01/29 12:59:38;;;;;;;13.15;9.65;;;10.60;99.90;;;;;;4882264;29;20127;-78
2024/01/29 13:02:05;;;;;;;10.68;9.60;;;10.70;99.90;;;;;;4916696;29;20100;-76
2024/01/29 13:04:31;;;;;;;12.93;9.65;;;10.80;99.90;;;;;;4916656;29;20079;-77